עמוד ראשי
METAR-TAF:

METAR-TAF

שדות תעופה :

Waterford, אירלנד

קו רוחב: 52-11-14N, קו אורך: 7-05-13W, גובה: 36מטר

תצפית מזג אוויר נוכחית

הדו"ח נערך לפני 39דקות, בשעה 20:00 UTC
רוח 8קשר מכיוון דרום-מערב
טמפרטורת 15 צלסיוס
לחות 88%
לחץ 1020 hPa
ראות 10 קילומטר או יותר
ללא עננים שבסיסם נמוך מ 5000 רגל או קומולונימבוס

METAR: EIWF 232000Z 22008KT CAVOK 15/13 Q1020

זמן: 21:39 (20:39 UTC)

תחזית

הדו"ח נערך לפני 3 שעות ו 39דקות, בשעה 17:00 UTC
תחזית בתוקף מ 23 ב 18 UTC עד 24 ב 03 UTC
רוח 9קשר מכיוון דרום-מערב
ראות 10 קילומטר או יותר
מעט עננים בגובה 4500רגל

TAF: EIWF 231700Z 2318/2403 23009KT 9999 FEW045

תצפיות ותחזיות מזג אוויר לגבי יותר מ- 4,000 שדות תעופה ברחבי העולם. דוחות METAR ו- TAF.

התחנות הזמינות מסומנות בנקודות צהובות ואדומות על גבי המפה.

העבר את העכבר לנקודה הצבעונית על מנת לראות את שם התחנה.

לאחר מכן, לחץ כדי לראות את תוכן ואת תחזיות מזג האוויר.

כדי לשנות את המפה: לחץ על הכפתורים הירוקים עם הפלוס השחור כדי להתקרב; על הכפתור הירוק עם המקף כדי להתרחק; או בחיצים הירוקים למפות סמוכות.


METAR-TAF: